Time;durP1;ratioP1;P1;durP2;ratioP2;P2;SDS_P1;SDS_P2;PMS_P1;PMS_P2;Temp;Humidity;BMP_temperature;BMP_pressure;BME280_temperature;BME280_humidity;BME280_pressure;Samples;Min_cycle;Max_cycle;Signal;HPM_P1;HPM_P2
2022/08/07 00:01:37;;;;;;;5.10;2.50;;;16.30;99.90;;;;;;5037109;28;25059;-75
2022/08/07 00:04:05;;;;;;;3.03;2.63;;;16.20;99.90;;;;;;5041100;28;25051;-73
2022/08/07 00:06:31;;;;;;;5.18;2.72;;;16.20;99.90;;;;;;5039346;28;24984;-71
2022/08/07 00:08:57;;;;;;;7.60;2.83;;;16.20;99.90;;;;;;5032194;28;25164;-71
2022/08/07 00:11:23;;;;;;;3.78;2.45;;;16.20;99.90;;;;;;5031377;28;25142;-72
2022/08/07 00:13:48;;;;;;;5.70;2.78;;;16.20;99.90;;;;;;5037965;28;25066;-73
2022/08/07 00:16:14;;;;;;;6.90;3.03;;;16.10;99.90;;;;;;5035591;28;25064;-74
2022/08/07 00:18:39;;;;;;;3.65;2.38;;;16.10;99.90;;;;;;5033923;28;25141;-71
2022/08/07 00:21:07;;;;;;;6.63;3.28;;;16.10;99.90;;;;;;5046850;28;25084;-71
2022/08/07 00:23:35;;;;;;;4.45;2.80;;;16.00;99.90;;;;;;5036873;28;25077;-71
2022/08/07 00:26:02;;;;;;;3.63;2.60;;;16.00;99.90;;;;;;5032827;28;25180;-72
2022/08/07 00:28:30;;;;;;;4.72;2.47;;;15.90;99.90;;;;;;5036235;28;25150;-72
2022/08/07 00:30:55;;;;;;;4.60;2.80;;;15.90;99.90;;;;;;5038463;28;25162;-72
2022/08/07 00:33:25;;;;;;;4.72;3.22;;;15.90;99.90;;;;;;5032882;28;25079;-73
2022/08/07 00:35:52;;;;;;;4.65;2.53;;;16.00;99.90;;;;;;5042406;28;25146;-73
2022/08/07 00:38:17;;;;;;;6.78;4.13;;;16.00;99.90;;;;;;5037341;28;25055;-73
2022/08/07 00:40:43;;;;;;;6.35;2.65;;;16.00;99.90;;;;;;5037524;28;25059;-73
2022/08/07 00:43:09;;;;;;;7.32;3.20;;;15.90;99.90;;;;;;5034306;28;25115;-74
2022/08/07 00:45:35;;;;;;;5.35;3.00;;;15.90;99.90;;;;;;5039605;28;25073;-72
2022/08/07 00:48:00;;;;;;;6.18;3.33;;;15.90;99.90;;;;;;5042580;28;25049;-72
2022/08/07 00:50:26;;;;;;;5.10;3.60;;;15.80;99.90;;;;;;5029098;28;25060;-73
2022/08/07 00:52:52;;;;;;;6.88;4.40;;;15.90;99.90;;;;;;5052065;28;25065;-74
2022/08/07 00:55:17;;;;;;;4.80;4.03;;;15.80;99.90;;;;;;5033665;28;25056;-73
2022/08/07 00:57:43;;;;;;;8.10;4.97;;;15.70;99.90;;;;;;5053348;28;25143;-72
2022/08/07 01:00:09;;;;;;;7.60;5.43;;;15.60;99.90;;;;;;5032850;28;25060;-73
2022/08/07 01:02:35;;;;;;;7.68;6.65;;;15.60;99.90;;;;;;5046586;28;25072;-74
2022/08/07 01:05:05;;;;;;;12.60;9.55;;;15.60;99.90;;;;;;5036823;28;25147;-72
2022/08/07 01:07:31;;;;;;;18.88;12.93;;;15.50;99.90;;;;;;5048560;28;25068;-73
2022/08/07 01:09:57;;;;;;;14.18;11.98;;;15.50;99.90;;;;;;5034020;28;25084;-71
2022/08/07 01:12:22;;;;;;;12.52;9.07;;;15.40;99.90;;;;;;5038784;28;25055;-71
2022/08/07 01:14:48;;;;;;;12.95;7.60;;;15.40;99.90;;;;;;5046602;28;25057;-74
2022/08/07 01:17:14;;;;;;;8.13;6.82;;;15.40;99.90;;;;;;5048435;28;25059;-72
2022/08/07 01:19:41;;;;;;;8.85;5.72;;;15.40;99.90;;;;;;5039618;28;25056;-73
2022/08/07 01:22:06;;;;;;;8.00;5.07;;;15.40;99.90;;;;;;5051340;28;25087;-73
2022/08/07 01:24:32;;;;;;;8.93;4.50;;;15.40;99.90;;;;;;5046913;28;25165;-73
2022/08/07 01:26:59;;;;;;;6.03;5.03;;;15.40;99.90;;;;;;5047431;28;25157;-71
2022/08/07 01:29:29;;;;;;;10.82;4.90;;;15.40;99.90;;;;;;5039930;28;25146;-72
2022/08/07 01:31:54;;;;;;;6.60;4.57;;;15.40;99.90;;;;;;5040257;28;25102;-73
2022/08/07 01:34:20;;;;;;;4.82;3.90;;;15.40;99.90;;;;;;5050463;28;25108;-72
2022/08/07 01:36:47;;;;;;;9.73;4.13;;;15.50;99.90;;;;;;5054549;28;25080;-73
2022/08/07 01:39:14;;;;;;;5.50;4.53;;;15.50;99.90;;;;;;5038789;28;25162;-72
2022/08/07 01:41:42;;;;;;;6.30;4.63;;;15.50;99.90;;;;;;5044033;28;25111;-73
2022/08/07 01:44:08;;;;;;;6.57;4.25;;;15.50;99.90;;;;;;5054248;28;25078;-74
2022/08/07 01:46:35;;;;;;;6.38;3.88;;;15.60;99.90;;;;;;5051904;28;25096;-72
2022/08/07 01:49:00;;;;;;;6.38;4.55;;;15.60;99.90;;;;;;5042837;28;25148;-71
2022/08/07 01:51:27;;;;;;;9.27;4.28;;;15.60;99.90;;;;;;5069471;28;25075;-71
2022/08/07 01:53:56;;;;;;;7.88;4.88;;;15.60;99.90;;;;;;5055798;28;25046;-74
2022/08/07 01:56:42;;;;;;;5.93;4.72;;;15.50;99.90;;;;;;5061048;28;25072;-73
2022/08/07 01:59:14;;;;;;;10.60;4.85;;;15.50;99.90;;;;;;5059607;28;25105;-71
2022/08/07 02:01:46;;;;;;;5.57;5.03;;;15.50;99.90;;;;;;5054931;28;25077;-72
2022/08/07 02:04:26;;;;;;;6.85;4.97;;;15.50;99.90;;;;;;5062505;28;25181;-73
2022/08/07 02:06:56;;;;;;;8.40;4.82;;;15.40;99.90;;;;;;5038755;28;25064;-73
2022/08/07 02:09:23;;;;;;;6.72;4.88;;;15.50;99.90;;;;;;5042557;28;25065;-74
2022/08/07 02:11:50;;;;;;;8.63;5.57;;;15.50;99.90;;;;;;5035577;28;25102;-72
2022/08/07 02:14:17;;;;;;;7.35;4.47;;;15.50;99.90;;;;;;5048244;28;25057;-72
2022/08/07 02:16:46;;;;;;;6.80;4.40;;;15.50;99.90;;;;;;5045999;28;25059;-72
2022/08/07 02:19:13;;;;;;;10.85;5.13;;;15.50;99.90;;;;;;5042460;28;25081;-73
2022/08/07 02:21:40;;;;;;;7.90;5.40;;;15.50;99.90;;;;;;5050806;28;25069;-71
2022/08/07 02:24:07;;;;;;;11.95;5.30;;;15.50;99.90;;;;;;5040122;28;25056;-72
2022/08/07 02:26:35;;;;;;;6.32;4.82;;;15.50;99.90;;;;;;5050386;28;25154;-72
2022/08/07 02:29:03;;;;;;;6.10;4.28;;;15.50;99.90;;;;;;5038550;28;25078;-73
2022/08/07 02:31:30;;;;;;;6.40;4.82;;;15.50;99.90;;;;;;5036013;28;25052;-73
2022/08/07 02:33:57;;;;;;;7.55;4.50;;;15.50;99.90;;;;;;5038059;28;25066;-74
2022/08/07 02:36:25;;;;;;;6.53;4.38;;;15.60;99.90;;;;;;5039988;28;25079;-72
2022/08/07 02:38:52;;;;;;;7.93;5.15;;;15.70;99.90;;;;;;5037969;28;25051;-75
2022/08/07 02:41:18;;;;;;;6.40;4.65;;;15.60;99.90;;;;;;5033799;28;25057;-74
2022/08/07 02:43:44;;;;;;;6.47;5.07;;;15.60;99.90;;;;;;5031760;28;25139;-72
2022/08/07 02:46:10;;;;;;;8.85;4.57;;;15.60;99.90;;;;;;5033348;28;25305;-71
2022/08/07 02:48:37;;;;;;;10.07;5.32;;;15.50;99.90;;;;;;5036104;28;25062;-71
2022/08/07 02:51:08;;;;;;;10.30;5.22;;;15.50;99.90;;;;;;5026929;28;25091;-73
2022/08/07 02:53:36;;;;;;;6.70;5.87;;;15.50;99.90;;;;;;5035197;28;25161;-72
2022/08/07 02:56:04;;;;;;;11.25;6.32;;;15.50;99.90;;;;;;5033993;28;25141;-73
2022/08/07 02:58:30;;;;;;;10.88;6.10;;;15.50;99.90;;;;;;5043207;28;25082;-74
2022/08/07 03:00:57;;;;;;;9.55;6.63;;;15.50;99.90;;;;;;5040546;28;25147;-74
2022/08/07 03:03:26;;;;;;;8.77;6.55;;;15.50;99.90;;;;;;5042651;28;25056;-72
2022/08/07 03:05:53;;;;;;;8.43;6.78;;;15.50;99.90;;;;;;5042010;28;25141;-75
2022/08/07 03:08:20;;;;;;;10.20;6.40;;;15.50;99.90;;;;;;5041566;28;25108;-70
2022/08/07 03:10:46;;;;;;;11.77;6.93;;;15.40;99.90;;;;;;5037602;28;25107;-74
2022/08/07 03:13:14;;;;;;;8.73;6.65;;;15.40;99.90;;;;;;5039681;28;25187;-72
2022/08/07 03:15:40;;;;;;;11.07;7.15;;;15.40;99.90;;;;;;5034408;28;25140;-71
2022/08/07 03:18:05;;;;;;;10.48;7.32;;;15.40;99.90;;;;;;5039467;28;25047;-71
2022/08/07 03:20:32;;;;;;;7.95;6.30;;;15.40;99.90;;;;;;5043028;28;25062;-71
2022/08/07 03:22:58;;;;;;;11.70;7.18;;;15.40;99.90;;;;;;5052776;28;25160;-72
2022/08/07 03:25:26;;;;;;;7.50;6.07;;;15.40;99.90;;;;;;5035689;28;25048;-72
2022/08/07 03:27:52;;;;;;;7.80;6.65;;;15.30;99.90;;;;;;5041741;28;25057;-75
2022/08/07 03:30:21;;;;;;;8.80;6.93;;;15.40;99.90;;;;;;5036107;28;25077;-71
2022/08/07 03:32:48;;;;;;;9.50;6.50;;;15.50;99.90;;;;;;5033078;28;25145;-72
2022/08/07 03:35:21;;;;;;;12.65;7.72;;;15.60;99.90;;;;;;5031984;28;25069;-73
2022/08/07 03:37:52;;;;;;;10.35;7.20;;;15.60;99.90;;;;;;5039843;28;25056;-72
2022/08/07 03:40:19;;;;;;;9.95;8.38;;;15.40;99.90;;;;;;5043396;28;25099;-73
2022/08/07 03:42:48;;;;;;;7.82;6.55;;;15.40;99.90;;;;;;5040367;28;25084;-75
2022/08/07 03:45:14;;;;;;;10.73;6.65;;;15.30;99.90;;;;;;5038524;28;25120;-73
2022/08/07 03:47:40;;;;;;;10.30;7.07;;;15.30;99.90;;;;;;5035743;28;25064;-75
2022/08/07 03:50:06;;;;;;;10.38;7.25;;;15.40;99.90;;;;;;5035105;28;25059;-71
2022/08/07 03:52:32;;;;;;;8.60;7.07;;;15.30;99.90;;;;;;5039691;28;25118;-73
2022/08/07 03:54:59;;;;;;;8.38;6.75;;;15.20;99.90;;;;;;5041265;28;25064;-73
2022/08/07 03:57:26;;;;;;;11.30;7.35;;;15.30;99.90;;;;;;5041542;28;25069;-73
2022/08/07 03:59:53;;;;;;;8.85;6.80;;;15.20;99.90;;;;;;5047082;28;25092;-74
2022/08/07 04:02:19;;;;;;;8.68;6.72;;;15.20;99.90;;;;;;5033321;28;25085;-74
2022/08/07 04:04:45;;;;;;;9.40;6.90;;;15.30;99.90;;;;;;5027861;28;25070;-73
2022/08/07 04:07:10;;;;;;;7.32;6.22;;;15.30;99.90;;;;;;5035031;28;25063;-73
2022/08/07 04:09:37;;;;;;;9.15;7.57;;;15.30;99.90;;;;;;5034307;28;25084;-73
2022/08/07 04:12:04;;;;;;;9.48;7.63;;;15.30;99.90;;;;;;5029678;28;25092;-72
2022/08/07 04:14:31;;;;;;;10.88;7.38;;;15.30;99.90;;;;;;5031028;28;25091;-71
2022/08/07 04:16:56;;;;;;;12.70;7.53;;;15.30;99.90;;;;;;5029567;28;25106;-73
2022/08/07 04:19:24;;;;;;;11.43;7.65;;;15.40;99.90;;;;;;5023525;28;25099;-72
2022/08/07 04:21:50;;;;;;;9.43;7.65;;;15.40;99.90;;;;;;5030380;28;25091;-73
2022/08/07 04:24:15;;;;;;;10.65;8.00;;;15.30;99.90;;;;;;5035259;28;25109;-73
2022/08/07 04:26:41;;;;;;;11.30;7.18;;;15.30;99.90;;;;;;5034043;28;25111;-75
2022/08/07 04:29:10;;;;;;;9.57;7.65;;;15.30;99.90;;;;;;5033431;28;25063;-72
2022/08/07 04:31:39;;;;;;;7.68;6.97;;;15.30;99.90;;;;;;5035755;28;25137;-71
2022/08/07 04:34:06;;;;;;;9.75;7.97;;;15.40;99.90;;;;;;5030818;28;25082;-73
2022/08/07 04:36:33;;;;;;;10.57;7.72;;;15.40;99.90;;;;;;5033310;28;25048;-73
2022/08/07 04:38:59;;;;;;;11.68;8.13;;;15.30;99.90;;;;;;5032250;28;25084;-73
2022/08/07 04:41:25;;;;;;;9.30;7.68;;;15.30;99.90;;;;;;5033491;28;25092;-73
2022/08/07 04:43:52;;;;;;;8.60;7.28;;;15.40;99.90;;;;;;5040754;28;25137;-76
2022/08/07 04:46:40;;;;;;;10.05;7.97;;;15.50;99.90;;;;;;5035738;28;25072;-74
2022/08/07 04:49:23;;;;;;;15.30;8.30;;;15.60;99.90;;;;;;5033991;28;25159;-73
2022/08/07 04:52:20;;;;;;;10.40;7.28;;;15.50;99.90;;;;;;5040618;28;25069;-72
2022/08/07 04:55:01;;;;;;;10.52;8.02;;;15.40;99.90;;;;;;5038113;28;25139;-73
2022/08/07 04:57:52;;;;;;;8.32;6.50;;;15.40;99.90;;;;;;5041996;28;25069;-73
2022/08/07 05:00:29;;;;;;;10.73;7.15;;;15.50;99.90;;;;;;5046402;28;25081;-73
2022/08/07 05:03:03;;;;;;;7.75;6.60;;;15.50;99.90;;;;;;5046533;28;25089;-76
2022/08/07 05:05:48;;;;;;;10.68;6.93;;;15.50;99.90;;;;;;5046143;28;25153;-76
2022/08/07 05:08:26;;;;;;;7.75;6.30;;;15.50;99.90;;;;;;5038403;28;25130;-73
2022/08/07 05:11:11;;;;;;;9.13;5.70;;;15.40;99.90;;;;;;5047706;28;25086;-75
2022/08/07 05:13:46;;;;;;;8.35;6.38;;;15.40;99.90;;;;;;5044070;28;25055;-75
2022/08/07 05:16:14;;;;;;;8.73;6.10;;;15.50;99.90;;;;;;5031732;28;25153;-73
2022/08/07 05:18:47;;;;;;;7.40;5.65;;;15.60;99.90;;;;;;5031792;28;25087;-72
2022/08/07 05:21:17;;;;;;;8.98;6.40;;;15.60;99.90;;;;;;5036104;28;25075;-72
2022/08/07 05:23:54;;;;;;;10.23;6.53;;;15.70;99.90;;;;;;5037611;28;25117;-73
2022/08/07 05:26:22;;;;;;;9.77;6.68;;;15.60;99.90;;;;;;5031631;28;25140;-73
2022/08/07 05:28:51;;;;;;;5.93;5.13;;;15.70;99.90;;;;;;5034790;28;25046;-74
2022/08/07 05:31:20;;;;;;;7.38;6.47;;;15.70;99.90;;;;;;5033884;28;25086;-74
2022/08/07 05:33:49;;;;;;;10.88;6.95;;;15.80;99.90;;;;;;5045925;28;25063;-74
2022/08/07 05:36:17;;;;;;;9.02;6.75;;;15.80;99.90;;;;;;5034770;28;25145;-73
2022/08/07 05:38:44;;;;;;;8.13;6.22;;;15.80;99.90;;;;;;5030672;28;25070;-74
2022/08/07 05:41:10;;;;;;;7.43;5.85;;;15.90;99.90;;;;;;5023798;28;25095;-74
2022/08/07 05:43:38;;;;;;;8.38;6.22;;;16.10;99.90;;;;;;5027162;28;25078;-72
2022/08/07 05:46:04;;;;;;;5.97;5.25;;;16.00;99.90;;;;;;5029859;28;25145;-73
2022/08/07 05:48:30;;;;;;;8.98;5.13;;;15.90;99.90;;;;;;5032176;28;25089;-73
2022/08/07 05:50:58;;;;;;;8.40;5.78;;;16.00;99.90;;;;;;5028630;28;25134;-74
2022/08/07 05:53:23;;;;;;;6.30;4.80;;;16.00;99.90;;;;;;5033991;28;25089;-74
2022/08/07 05:55:50;;;;;;;5.47;4.68;;;16.10;99.90;;;;;;5043111;28;25161;-71
2022/08/07 05:58:17;;;;;;;6.70;4.68;;;16.10;99.90;;;;;;5040246;28;25080;-73
2022/08/07 06:00:45;;;;;;;6.20;4.68;;;16.20;99.90;;;;;;5028029;28;25076;-74
2022/08/07 06:03:12;;;;;;;5.88;4.32;;;16.30;99.90;;;;;;5029773;28;25069;-73
2022/08/07 06:05:39;;;;;;;5.82;4.10;;;16.50;99.90;;;;;;5027716;28;24953;-74
2022/08/07 06:08:05;;;;;;;7.53;5.25;;;16.60;99.90;;;;;;5028920;28;25057;-75
2022/08/07 06:10:31;;;;;;;7.18;4.80;;;16.50;99.90;;;;;;5026953;28;25058;-74
2022/08/07 06:12:58;;;;;;;5.78;5.20;;;16.60;99.90;;;;;;5039198;28;25074;-73
2022/08/07 06:15:26;;;;;;;7.43;5.70;;;16.70;99.90;;;;;;5027566;28;25076;-73
2022/08/07 06:17:52;;;;;;;6.90;5.10;;;16.70;99.90;;;;;;5038188;28;25150;-75
2022/08/07 06:20:18;;;;;;;5.95;5.10;;;16.70;99.90;;;;;;5031526;28;25142;-73
2022/08/07 06:22:45;;;;;;;9.95;5.57;;;16.90;99.90;;;;;;5029518;28;25159;-72
2022/08/07 06:25:12;;;;;;;7.10;5.60;;;17.10;99.90;;;;;;5030515;28;25004;-73
2022/08/07 06:27:37;;;;;;;9.00;5.65;;;17.40;99.90;;;;;;5038936;28;25072;-73
2022/08/07 06:30:03;;;;;;;8.55;5.90;;;17.50;99.90;;;;;;5029682;28;25092;-72
2022/08/07 06:32:30;;;;;;;10.95;5.45;;;17.40;99.90;;;;;;5034360;28;25105;-73
2022/08/07 06:34:55;;;;;;;9.30;5.60;;;17.60;99.90;;;;;;5028822;28;25058;-72
2022/08/07 06:37:21;;;;;;;8.85;6.13;;;18.00;99.90;;;;;;5030891;28;25078;-74
2022/08/07 06:39:46;;;;;;;10.85;5.90;;;18.30;99.90;;;;;;5042672;28;25061;-74
2022/08/07 06:42:19;;;;;;;7.40;5.78;;;18.20;99.90;;;;;;5034641;28;25077;-73
2022/08/07 06:44:47;;;;;;;7.68;5.65;;;17.80;99.90;;;;;;5033135;28;25107;-72
2022/08/07 06:47:14;;;;;;;8.30;6.40;;;17.70;99.90;;;;;;5041648;28;25153;-72
2022/08/07 06:49:40;;;;;;;9.25;6.93;;;17.60;99.90;;;;;;5034465;28;25076;-72
2022/08/07 06:52:08;;;;;;;8.35;6.70;;;17.70;99.90;;;;;;5033853;28;25088;-74
2022/08/07 06:54:35;;;;;;;6.55;5.90;;;17.70;99.90;;;;;;5029442;28;25100;-74
2022/08/07 06:57:02;;;;;;;7.82;6.00;;;17.90;99.90;;;;;;5045183;28;25128;-72
2022/08/07 06:59:35;;;;;;;6.35;4.97;;;17.90;99.90;;;;;;5038343;28;25082;-72
2022/08/07 07:02:01;;;;;;;7.45;5.43;;;17.90;99.90;;;;;;5036109;28;24892;-71
2022/08/07 07:04:29;;;;;;;9.02;6.45;;;18.10;99.90;;;;;;5030351;28;25062;-72
2022/08/07 07:06:56;;;;;;;6.50;5.80;;;18.40;99.90;;;;;;5026371;28;25086;-70
2022/08/07 07:09:21;;;;;;;10.30;6.10;;;18.50;99.90;;;;;;5042813;28;25062;-73
2022/08/07 07:12:21;;;;;;;7.40;5.95;;;18.60;99.90;;;;;;5040764;28;25066;-72
2022/08/07 07:15:09;;;;;;;6.13;5.22;;;18.40;99.90;;;;;;5034036;28;25139;-74
2022/08/07 07:17:58;;;;;;;7.93;5.20;;;18.20;99.90;;;;;;5038120;28;25061;-73
2022/08/07 07:20:33;;;;;;;5.88;5.13;;;18.10;99.90;;;;;;5035355;28;25154;-72
2022/08/07 07:23:00;;;;;;;6.68;5.05;;;18.50;99.90;;;;;;5031885;28;25072;-72
2022/08/07 07:25:26;;;;;;;13.00;6.40;;;18.90;99.90;;;;;;5042839;28;25063;-71
2022/08/07 07:27:57;;;;;;;6.53;4.60;;;18.80;99.90;;;;;;5046507;28;25067;-74
2022/08/07 07:30:28;;;;;;;6.35;5.18;;;19.00;99.90;;;;;;5032320;28;25079;-72
2022/08/07 07:32:56;;;;;;;9.55;4.32;;;19.10;99.90;;;;;;5035902;28;25065;-72
2022/08/07 07:35:23;;;;;;;7.20;4.85;;;19.10;99.90;;;;;;5034161;28;25057;-74
2022/08/07 07:37:49;;;;;;;8.52;5.28;;;18.80;99.90;;;;;;5037612;28;25098;-71
2022/08/07 07:40:19;;;;;;;7.30;4.25;;;18.70;99.90;;;;;;5034845;28;25104;-71
2022/08/07 07:42:47;;;;;;;7.00;2.75;;;19.20;99.90;;;;;;5037569;28;25060;-72
2022/08/07 07:45:15;;;;;;;5.22;3.70;;;18.90;99.90;;;;;;5043970;28;25054;-72
2022/08/07 07:47:42;;;;;;;5.60;4.45;;;18.80;99.90;;;;;;5054054;28;25073;-75
2022/08/07 07:50:11;;;;;;;5.78;4.78;;;19.10;99.90;;;;;;5039035;28;25061;-75
2022/08/07 07:52:38;;;;;;;6.32;3.65;;;19.00;99.90;;;;;;5043013;28;25056;-71
2022/08/07 07:55:06;;;;;;;8.07;4.32;;;19.50;99.90;;;;;;5045034;28;25065;-73
2022/08/07 07:57:33;;;;;;;6.47;4.07;;;20.10;99.90;;;;;;5035684;28;25062;-71
2022/08/07 08:00:00;;;;;;;4.78;3.40;;;20.20;99.90;;;;;;5042764;28;25073;-72
2022/08/07 08:02:27;;;;;;;5.40;3.78;;;20.30;99.90;;;;;;5033432;28;25074;-72
2022/08/07 08:04:54;;;;;;;3.42;2.00;;;19.60;99.90;;;;;;5026471;28;25086;-74
2022/08/07 08:07:21;;;;;;;4.55;2.10;;;20.00;99.90;;;;;;5021529;28;25088;-73
2022/08/07 08:09:49;;;;;;;6.43;3.17;;;20.00;99.90;;;;;;5028817;28;25088;-74
2022/08/07 08:12:16;;;;;;;5.68;3.25;;;20.20;99.90;;;;;;5025191;28;25066;-73
2022/08/07 08:14:41;;;;;;;4.10;3.50;;;20.80;99.90;;;;;;5032086;28;25067;-72
2022/08/07 08:17:09;;;;;;;9.80;4.22;;;20.60;99.90;;;;;;5032328;28;25054;-74
2022/08/07 08:19:36;;;;;;;5.75;4.57;;;20.80;99.90;;;;;;5026317;28;25076;-72
2022/08/07 08:27:38;;;;;;;4.70;3.97;;;21.30;99.90;;;;;;5036946;28;25067;-71
2022/08/07 08:30:06;;;;;;;4.65;3.95;;;21.20;99.90;;;;;;5034533;28;25074;-72
2022/08/07 08:32:37;;;;;;;6.30;3.55;;;21.40;99.90;;;;;;5029407;28;25056;-72
2022/08/07 08:35:03;;;;;;;6.82;3.83;;;21.90;99.90;;;;;;5034477;28;25123;-71
2022/08/07 08:37:34;;;;;;;6.25;4.10;;;21.20;99.90;;;;;;5030353;28;25067;-73
2022/08/07 08:40:00;;;;;;;4.75;4.05;;;21.10;99.90;;;;;;5031271;28;25105;-73
2022/08/07 08:42:37;;;;;;;4.40;3.60;;;21.20;99.90;;;;;;5031902;28;25102;-73
2022/08/07 08:45:32;;;;;;;5.13;3.38;;;21.20;99.90;;;;;;5026755;28;25049;-74
2022/08/07 08:48:26;;;;;;;7.30;4.15;;;20.60;99.90;;;;;;5035719;28;25073;-74
2022/08/07 08:51:03;;;;;;;5.60;3.38;;;20.60;99.90;;;;;;5028642;28;25112;-72
2022/08/07 08:53:58;;;;;;;5.22;2.83;;;20.20;99.90;;;;;;5032199;28;25065;-71
2022/08/07 08:56:29;;;;;;;6.13;2.90;;;20.50;99.90;;;;;;5028914;28;25071;-72
2022/08/07 08:58:58;;;;;;;4.80;2.38;;;20.50;99.90;;;;;;5035657;28;25077;-72
2022/08/07 09:01:39;;;;;;;4.07;2.17;;;20.90;99.90;;;;;;5036448;28;25073;-71
2022/08/07 09:04:30;;;;;;;6.50;2.53;;;21.50;99.90;;;;;;5039402;28;25169;-72
2022/08/07 09:07:49;;;;;;;5.00;2.90;;;22.10;99.90;;;;;;5034563;28;25153;-74
2022/08/07 09:10:22;;;;;;;8.43;3.10;;;22.40;99.90;;;;;;4973319;28;25130;-71
2022/08/07 09:13:11;;;;;;;2.95;2.20;;;22.70;99.90;;;;;;5033671;28;25097;-73
2022/08/07 09:15:46;;;;;;;2.38;2.17;;;22.60;99.90;;;;;;5035945;28;25066;-73
2022/08/07 09:18:30;;;;;;;2.33;2.13;;;22.30;99.90;;;;;;5042905;28;25062;-74
2022/08/07 09:21:31;;;;;;;4.15;2.38;;;21.30;99.90;;;;;;5043264;28;25142;-74
2022/08/07 09:24:38;;;;;;;2.75;1.88;;;21.30;99.90;;;;;;5015758;28;25060;-73
2022/08/07 09:27:23;;;;;;;3.55;2.10;;;21.80;99.90;;;;;;4967121;28;25111;-74
2022/08/07 09:29:49;;;;;;;3.75;2.00;;;22.60;99.90;;;;;;4965559;28;25144;-71
2022/08/07 09:32:45;;;;;;;6.93;2.00;;;22.30;95.70;;;;;;5010251;28;25265;-72
2022/08/07 09:35:19;;;;;;;2.10;1.90;;;22.40;97.00;;;;;;5035099;28;25098;-75
2022/08/07 09:37:57;;;;;;;3.63;2.53;;;22.50;98.50;;;;;;5055420;28;25123;-73
2022/08/07 09:40:37;;;;;;;6.38;2.65;;;22.30;94.70;;;;;;5036133;28;25069;-75
2022/08/07 09:43:39;;;;;;;5.28;2.50;;;22.30;94.70;;;;;;5051117;28;25049;-74
2022/08/07 09:46:42;;;;;;;4.45;2.05;;;21.80;96.60;;;;;;5051956;28;25117;-72
2022/08/07 09:49:36;;;;;;;5.15;2.28;;;22.40;97.20;;;;;;5037211;28;25156;-73
2022/08/07 09:52:11;;;;;;;3.60;2.60;;;22.80;93.90;;;;;;5036386;28;25127;-74
2022/08/07 09:55:08;;;;;;;5.47;2.10;;;23.30;90.40;;;;;;5035993;28;25087;-74
2022/08/07 09:58:11;;;;;;;3.58;2.28;;;22.80;71.70;;;;;;5013341;28;25097;-75
2022/08/07 10:00:50;;;;;;;3.60;2.30;;;21.90;92.30;;;;;;5044433;28;25058;-74
2022/08/07 10:03:32;;;;;;;3.67;2.33;;;21.90;95.00;;;;;;5047863;28;25061;-77
2022/08/07 10:06:13;;;;;;;6.95;2.72;;;22.20;91.80;;;;;;5048481;28;25090;-76
2022/08/07 10:09:01;;;;;;;3.75;2.65;;;22.80;90.50;;;;;;5066609;28;25078;-75
2022/08/07 10:12:04;;;;;;;4.47;2.70;;;22.30;91.20;;;;;;5059033;28;25040;-74
2022/08/07 10:14:54;;;;;;;2.75;2.47;;;22.50;95.10;;;;;;5052285;28;25077;-76
2022/08/07 10:17:47;;;;;;;4.40;2.70;;;22.80;93.90;;;;;;5040723;28;25156;-75
2022/08/07 10:20:26;;;;;;;;;;;22.60;90.80;;;;;;5038950;28;25057;-75
2022/08/07 10:23:32;;;;;;;2.35;1.92;;;22.30;91.50;;;;;;5042247;28;24084;-74
2022/08/07 10:26:32;;;;;;;2.88;1.88;;;22.20;87.30;;;;;;5032367;28;25064;-74
2022/08/07 10:29:12;;;;;;;2.83;1.90;;;22.80;58.20;;;;;;5035772;28;25071;-74
2022/08/07 10:31:55;;;;;;;4.18;1.88;;;22.30;39.90;;;;;;5041458;28;25069;-74
2022/08/07 10:34:57;;;;;;;5.43;1.88;;;22.10;54.80;;;;;;5038081;28;25069;-74
2022/08/07 10:37:40;;;;;;;2.07;1.87;;;22.70;60.80;;;;;;5029226;28;25099;-75
2022/08/07 10:40:28;;;;;;;2.63;1.98;;;22.90;33.70;;;;;;5024776;28;25192;-74
2022/08/07 10:43:29;;;;;;;4.13;2.00;;;23.40;17.30;;;;;;5028586;28;25079;-76
2022/08/07 10:45:59;;;;;;;3.45;1.98;;;23.20;1.00;;;;;;5030693;28;25075;-74
2022/08/07 10:48:54;;;;;;;4.95;1.77;;;22.80;1.00;;;;;;5030976;28;25054;-75
2022/08/07 10:51:31;;;;;;;1.55;1.45;;;23.60;1.00;;;;;;5034815;28;25079;-75
2022/08/07 10:54:15;;;;;;;2.42;1.98;;;24.20;1.00;;;;;;5030118;28;25058;-76
2022/08/07 10:57:07;;;;;;;2.60;1.80;;;24.40;1.00;;;;;;5030488;28;25137;-76
2022/08/07 10:59:54;;;;;;;3.85;2.08;;;23.70;1.00;;;;;;5035706;28;25067;-76
2022/08/07 11:02:36;;;;;;;2.20;2.03;;;23.60;1.00;;;;;;5031813;28;25095;-75
2022/08/07 11:05:23;;;;;;;7.05;2.95;;;24.40;1.00;;;;;;5030755;28;25076;-77
2022/08/07 11:08:07;;;;;;;4.38;2.60;;;24.40;1.00;;;;;;5038138;28;25072;-75
2022/08/07 11:10:44;;;;;;;3.78;3.10;;;23.80;1.00;;;;;;5034149;28;25071;-77
2022/08/07 11:13:18;;;;;;;3.38;2.42;;;23.70;1.00;;;;;;5037914;28;25062;-74
2022/08/07 11:15:49;;;;;;;2.80;2.60;;;23.60;1.00;;;;;;5035903;28;25093;-74
2022/08/07 11:18:31;;;;;;;4.60;2.67;;;23.50;1.00;;;;;;5047784;28;25085;-75
2022/08/07 11:21:22;;;;;;;3.15;2.88;;;24.10;1.00;;;;;;5038945;28;25059;-76
2022/08/07 11:24:10;;;;;;;4.45;2.78;;;24.40;1.00;;;;;;5038710;28;25067;-75
2022/08/07 11:26:49;;;;;;;3.83;2.42;;;24.60;1.00;;;;;;5040583;28;25097;-76
2022/08/07 11:29:32;;;;;;;2.53;2.20;;;24.20;1.00;;;;;;5034652;28;25050;-75
2022/08/07 11:32:07;;;;;;;2.80;2.60;;;24.00;1.00;;;;;;5033566;28;25076;-76
2022/08/07 11:34:48;;;;;;;3.58;3.08;;;24.70;2.40;;;;;;5039580;28;25140;-76
2022/08/07 11:37:38;;;;;;;5.30;2.72;;;24.10;1.00;;;;;;5057558;28;25056;-74
2022/08/07 11:40:15;;;;;;;5.72;2.47;;;24.10;8.70;;;;;;5041642;28;25157;-76
2022/08/07 11:43:12;;;;;;;2.70;2.33;;;24.70;1.00;;;;;;5030734;28;25064;-78
2022/08/07 11:45:47;;;;;;;4.43;2.70;;;24.90;1.00;;;;;;5031874;28;25098;-74
2022/08/07 11:48:27;;;;;;;3.40;2.45;;;25.30;1.00;;;;;;5043125;28;25094;-75
2022/08/07 11:51:08;;;;;;;3.22;2.15;;;25.40;1.00;;;;;;5030319;28;25143;-74
2022/08/07 11:54:07;;;;;;;2.40;2.20;;;24.50;1.00;;;;;;5034920;28;25076;-78
2022/08/07 11:56:54;;;;;;;3.28;2.60;;;24.70;1.00;;;;;;5033214;28;25066;-75
2022/08/07 11:59:32;;;;;;;3.85;2.70;;;24.40;1.00;;;;;;5029898;28;25110;-76
2022/08/07 12:02:27;;;;;;;3.03;2.63;;;24.60;1.00;;;;;;5037187;28;25150;-77
2022/08/07 12:05:14;;;;;;;4.53;2.72;;;24.70;1.00;;;;;;5032099;28;25085;-77
2022/08/07 12:07:47;;;;;;;3.72;2.55;;;24.70;1.00;;;;;;5042402;28;25171;-74
2022/08/07 12:10:53;;;;;;;4.82;3.28;;;25.00;1.00;;;;;;5042850;28;25093;-75
2022/08/07 12:13:37;;;;;;;3.00;2.70;;;24.60;1.00;;;;;;5028024;28;25046;-78
2022/08/07 12:16:10;;;;;;;5.35;2.65;;;23.80;1.00;;;;;;5042114;28;25066;-77
2022/08/07 12:18:45;;;;;;;4.25;3.10;;;24.20;1.00;;;;;;5053476;28;25105;-77
2022/08/07 12:21:49;;;;;;;2.70;2.45;;;25.00;1.00;;;;;;5048780;28;25077;-76
2022/08/07 12:24:38;;;;;;;4.60;2.75;;;24.90;1.00;;;;;;5035995;28;25076;-76
2022/08/07 12:27:12;;;;;;;10.07;3.33;;;25.00;1.00;;;;;;5035878;28;25070;-76
2022/08/07 12:29:50;;;;;;;3.03;2.65;;;25.20;1.00;;;;;;5037692;28;25080;-78
2022/08/07 12:32:36;;;;;;;3.00;2.08;;;24.30;1.00;;;;;;5033757;28;25170;-79
2022/08/07 12:35:05;;;;;;;3.58;2.28;;;24.00;1.00;;;;;;5042412;28;25068;-77
2022/08/07 12:37:32;;;;;;;4.10;2.40;;;24.80;1.00;;;;;;5048457;28;25054;-79
2022/08/07 12:40:00;;;;;;;4.78;3.47;;;25.60;1.00;;;;;;5032908;28;25046;-77
2022/08/07 12:42:29;;;;;;;4.40;2.72;;;25.60;1.00;;;;;;5031429;28;25053;-77
2022/08/07 12:45:04;;;;;;;5.10;2.55;;;25.40;1.00;;;;;;5042830;28;25058;-75
2022/08/07 12:47:56;;;;;;;3.28;2.45;;;25.80;1.00;;;;;;5037137;28;25183;-78
2022/08/07 12:50:30;;;;;;;3.00;2.25;;;24.90;1.00;;;;;;5045875;28;25141;-77
2022/08/07 12:53:49;;;;;;;2.13;1.92;;;24.90;1.00;;;;;;5033251;28;25155;-78
2022/08/07 12:56:28;;;;;;;2.17;1.27;;;24.60;1.00;;;;;;4952783;28;25114;-77
2022/08/07 12:58:55;;;;;;;2.58;1.63;;;24.70;1.00;;;;;;5039076;28;25135;-77
2022/08/07 13:01:52;;;;;;;3.17;1.83;;;25.10;1.00;;;;;;5044175;28;25071;-78
2022/08/07 13:04:27;;;;;;;4.10;2.10;;;24.60;1.00;;;;;;5018576;28;25077;-75
2022/08/07 13:07:26;;;;;;;2.30;2.05;;;24.00;1.00;;;;;;5047068;28;25096;-77
2022/08/07 13:10:14;;;;;;;3.53;2.42;;;24.20;1.00;;;;;;5042499;28;25173;-75
2022/08/07 13:13:09;;;;;;;2.40;2.20;;;24.10;1.00;;;;;;5050850;28;25070;-77
2022/08/07 13:15:46;;;;;;;2.90;2.10;;;24.00;1.00;;;;;;5044128;28;25074;-76
2022/08/07 13:18:22;;;;;;;2.78;2.20;;;23.90;1.00;;;;;;5047319;28;25053;-78
2022/08/07 13:21:17;;;;;;;2.30;2.10;;;24.30;1.00;;;;;;5040414;28;25141;-78
2022/08/07 13:24:14;;;;;;;3.17;2.38;;;24.30;1.00;;;;;;5052783;28;25072;-78
2022/08/07 13:26:44;;;;;;;4.03;2.50;;;23.80;1.00;;;;;;5044287;28;25107;-79
2022/08/07 13:29:22;;;;;;;3.42;2.22;;;24.00;1.00;;;;;;5039332;28;25076;-77